Eureka, CA

11:22 PM PDT on October 25, 2014 (GMT -0700)
Henderson Center | Change Station
CLOSE
Current Station
Personal Weather Station
Location: Eureka, CA
Elevation: 125 ft
Nearby Weather Stations

Elev 125 ft 40.78 °N, 124.17 °W | Updated 5 seconds ago

Overcast
Overcast
51.8 °F
Feels Like 51.8 °F
N
0.0
Wind Variable Wind from ESE
Gusts 0.0 mph

Today
High -- | Low -- °F
--% Chance of Precip.
Yesterday
High -- | Low -- °F
Precip. -- in
7:39 AM 6:21 PM
Waxing Crescent, 6% visible
Pressure 30.14 in
Visibility 8.0 miles
Clouds Overcast 3500 ft
Dew Point 50 °F
Humidity 92%
Rainfall 0.35 in
Snow Depth Not available.
UV 0 out of 12
Pollen .30 out of 12
Air Quality Not available.
Flu Activity Sporadic
METAR KACV 260553Z AUTO 12005KT 8SM OVC035 11/09 A3012 RMK AO2 SLP204 60001 T01060094 10144 20100 51019

More Conditions Fewer Conditions

Pressure 30.14 in
Visibility 8.0 miles
Clouds Overcast 3500 ft
Dew Point 50 °F
Humidity 92%
Rainfall 0.35 in
Snow Depth Not available.
UV 0 out of 12
Pollen .30 out of 12
Air Quality Not available.
Flu Activity Sporadic
METAR KACV 260553Z AUTO 12005KT 8SM OVC035 11/09 A3012 RMK AO2 SLP204 60001 T01060094 10144 20100 51019

More Conditions Fewer Conditions

10-Day Weather Forecast

Almanac

Astronomy

Oct. 25, 2014 Rise Set
Actual Time 7:39 AM PDT 6:21 PM PDT
Civil Twilight 7:10 AM PDT 6:49 PM PDT
Nautical Twilight 6:38 AM PDT 7:21 PM PDT
Astronomical Twilight 6:07 AM PDT 7:53 PM PDT
Moon 9:24 AM PDT (10/25) 7:48 PM PDT (10/25)
Length of Visible Light 11h 38m
Length of Day
10h 42m
Tomorrow will be 2m 29s shorter.
Waxing Crescent, 6% of the Moon is Illuminated
Oct 26
Waxing Crescent
Oct 30
First Quarter
Nov 6
Full
Nov 14
Last Quarter
Nov 22
New

Community

WunderPhotos

Upload Photos

1,765,114 photos uploaded!

Nearby

Snow Depth

Station Depth Elevation
Adin Mountain 1 in 6200 ft
Crowder Flat 0 in 5100 ft
Independence Lake 3 in 8450 ft
Independence Creek 0 in 6500 ft
CSS Lab 3 in 6900 ft

Earthquake Activity

City Distance Mag. Time & Date
No recent earthquake activity has been reported nearby.
Minimum magnitude displayed is 2.5.

Coastal Water Temperatures

Place Temperature
North Spit, CA 60.1 °F
Crescent City, CA 60.1 °F

Nearby Weather Stations